Time;durP1;ratioP1;P1;durP2;ratioP2;P2;SDS_P1;SDS_P2;PMS_P1;PMS_P2;Temp;Humidity;BMP_temperature;BMP_pressure;BME280_temperature;BME280_humidity;BME280_pressure;Samples;Min_cycle;Max_cycle;Signal;HPM_P1;HPM_P2
2024/03/14 00:01:17;;;;;;;45.15;26.40;;;10.40;99.90;;;;;;5044950;28;20029;-84
2024/03/14 00:03:44;;;;;;;50.55;26.73;;;10.40;99.90;;;;;;5014841;28;20021;-84
2024/03/14 00:06:10;;;;;;;53.63;27.45;;;10.40;99.90;;;;;;5045355;28;20037;-84
2024/03/14 00:08:36;;;;;;;41.72;23.65;;;10.40;99.90;;;;;;5022447;28;20021;-84
2024/03/14 00:11:05;;;;;;;47.47;25.95;;;10.40;99.90;;;;;;5048451;28;20415;-84
2024/03/14 00:13:30;;;;;;;48.10;25.92;;;10.50;99.90;;;;;;5027762;28;20479;-84
2024/03/14 00:15:56;;;;;;;48.28;25.88;;;10.40;99.90;;;;;;5045298;28;20041;-84
2024/03/14 00:18:22;;;;;;;40.53;23.77;;;10.50;99.90;;;;;;5045363;28;20029;-84
2024/03/14 00:20:47;;;;;;;52.00;27.33;;;10.50;99.90;;;;;;5044854;28;20018;-84
2024/03/14 00:23:13;;;;;;;47.78;25.33;;;10.50;99.90;;;;;;5048034;28;20478;-85
2024/03/14 00:25:40;;;;;;;50.95;26.83;;;10.50;99.90;;;;;;5031867;28;20494;-84
2024/03/14 00:28:09;;;;;;;45.53;26.33;;;10.40;99.90;;;;;;5032246;28;20032;-84
2024/03/14 00:30:35;;;;;;;45.15;25.48;;;10.40;99.90;;;;;;5031404;28;20075;-84
2024/03/14 00:33:00;;;;;;;55.60;27.08;;;10.40;99.90;;;;;;5031749;28;20418;-84
2024/03/14 00:35:27;;;;;;;48.05;25.52;;;10.40;99.90;;;;;;5023416;28;20388;-84
2024/03/14 00:37:53;;;;;;;53.13;25.85;;;10.40;99.90;;;;;;5031768;28;20060;-84
2024/03/14 00:40:19;;;;;;;45.17;24.77;;;10.40;99.90;;;;;;5031126;28;20459;-84
2024/03/14 00:42:49;;;;;;;50.90;27.45;;;10.50;99.90;;;;;;5031329;28;20029;-84
2024/03/14 00:45:15;;;;;;;58.75;27.90;;;10.50;99.90;;;;;;5022323;28;20026;-84
2024/03/14 00:47:40;;;;;;;47.20;24.92;;;10.40;99.90;;;;;;5031356;28;20079;-84
2024/03/14 00:50:08;;;;;;;47.35;28.23;;;10.50;99.90;;;;;;5032261;28;20538;-84
2024/03/14 00:52:35;;;;;;;47.15;25.58;;;10.50;99.90;;;;;;5031794;28;20478;-84
2024/03/14 00:55:00;;;;;;;49.38;27.13;;;10.50;99.90;;;;;;5023772;28;20045;-84
2024/03/14 00:57:26;;;;;;;49.63;27.27;;;10.50;99.90;;;;;;5031879;28;20490;-84
2024/03/14 00:59:51;;;;;;;52.08;28.95;;;10.50;99.90;;;;;;5031020;28;20022;-85
2024/03/14 01:02:17;;;;;;;54.33;28.00;;;10.50;99.90;;;;;;5030922;28;20420;-84
2024/03/14 01:04:44;;;;;;;44.75;25.70;;;10.50;99.90;;;;;;5028906;28;20538;-84
2024/03/14 01:07:09;;;;;;;50.63;25.90;;;10.50;99.90;;;;;;5048240;28;20034;-85
2024/03/14 01:09:36;;;;;;;45.28;25.23;;;10.40;99.90;;;;;;5012349;28;20433;-84
2024/03/14 01:12:01;;;;;;;51.33;27.95;;;10.50;99.90;;;;;;5044172;28;20022;-84
2024/03/14 01:14:27;;;;;;;51.70;28.08;;;10.50;99.90;;;;;;5044257;28;20045;-85
2024/03/14 01:16:52;;;;;;;54.60;29.27;;;10.40;99.90;;;;;;5043968;28;20376;-85
2024/03/14 01:19:18;;;;;;;51.42;26.65;;;10.40;99.90;;;;;;5044055;28;20025;-84
2024/03/14 01:21:44;;;;;;;48.05;26.95;;;10.40;99.90;;;;;;5043527;28;20037;-84
2024/03/14 01:24:10;;;;;;;49.67;27.00;;;10.50;99.90;;;;;;5011694;28;20030;-83
2024/03/14 01:26:36;;;;;;;46.40;26.25;;;10.50;99.90;;;;;;5045323;28;20415;-84
2024/03/14 01:29:03;;;;;;;48.75;27.60;;;10.50;99.90;;;;;;5029502;28;20056;-85
2024/03/14 01:31:29;;;;;;;52.00;28.27;;;10.50;99.90;;;;;;5029757;28;20506;-84
2024/03/14 01:33:55;;;;;;;43.33;25.35;;;10.50;99.90;;;;;;5029668;28;20057;-85
2024/03/14 01:36:21;;;;;;;58.33;29.55;;;10.50;99.90;;;;;;5024754;28;20033;-85
2024/03/14 01:38:46;;;;;;;53.03;28.35;;;10.50;99.90;;;;;;5045782;28;20530;-85
2024/03/14 01:41:19;;;;;;;49.40;28.50;;;10.50;99.90;;;;;;5029011;28;20025;-85
2024/03/14 01:43:58;;;;;;;47.25;28.20;;;10.50;99.90;;;;;;5029537;28;20462;-85
2024/03/14 01:46:29;;;;;;;54.40;26.42;;;10.50;99.90;;;;;;5028835;28;20106;-84
2024/03/14 01:49:00;;;;;;;54.85;27.33;;;10.50;99.90;;;;;;5015092;28;20034;-84
2024/03/14 01:51:28;;;;;;;50.53;27.27;;;10.50;99.90;;;;;;5042479;28;20026;-84
2024/03/14 01:53:55;;;;;;;45.95;25.90;;;10.50;99.90;;;;;;5043293;28;20390;-84
2024/03/14 01:56:21;;;;;;;51.35;28.50;;;10.50;99.90;;;;;;5042027;28;20032;-84
2024/03/14 01:58:49;;;;;;;54.35;29.77;;;10.50;99.90;;;;;;5045258;28;20467;-84
2024/03/14 02:01:15;;;;;;;49.33;27.38;;;10.50;99.90;;;;;;5028750;28;20091;-85
2024/03/14 02:03:44;;;;;;;47.53;26.23;;;10.50;99.90;;;;;;5028975;28;20041;-84
2024/03/14 02:06:30;;;;;;;48.20;27.88;;;10.50;99.90;;;;;;5024380;28;20025;-85
2024/03/14 02:08:56;;;;;;;50.95;27.77;;;10.40;99.90;;;;;;5036217;28;20380;-85
2024/03/14 02:11:22;;;;;;;51.33;28.48;;;10.40;99.90;;;;;;5008814;28;20315;-84
2024/03/14 02:13:47;;;;;;;54.95;29.05;;;10.40;99.90;;;;;;5010569;28;20026;-84
2024/03/14 02:16:13;;;;;;;49.17;25.33;;;10.40;99.90;;;;;;5009374;28;20022;-84
2024/03/14 02:18:39;;;;;;;56.38;29.52;;;10.40;99.90;;;;;;5024062;28;20044;-84
2024/03/14 02:21:04;;;;;;;49.35;27.95;;;10.40;99.90;;;;;;5044720;28;20029;-84
2024/03/14 02:23:30;;;;;;;49.53;27.25;;;10.40;99.90;;;;;;5045388;28;20402;-84
2024/03/14 02:25:56;;;;;;;50.83;28.80;;;10.40;99.90;;;;;;5029915;28;20909;-83
2024/03/14 02:28:22;;;;;;;48.15;27.85;;;10.40;99.90;;;;;;5037690;28;20106;-84
2024/03/14 02:30:48;;;;;;;49.92;29.17;;;10.40;99.90;;;;;;5041888;28;20057;-84
2024/03/14 02:33:13;;;;;;;53.88;28.60;;;10.40;99.90;;;;;;5043471;28;20037;-88
2024/03/14 02:35:41;;;;;;;52.65;29.08;;;10.40;99.90;;;;;;5043812;28;20022;-87
2024/03/14 02:38:08;;;;;;;58.85;30.98;;;10.40;99.90;;;;;;5045527;28;20021;-87
2024/03/14 02:40:34;;;;;;;49.05;27.40;;;10.40;99.90;;;;;;5047078;28;20132;-88
2024/03/14 02:43:00;;;;;;;50.45;27.38;;;10.40;99.90;;;;;;5030434;28;20025;-87
2024/03/14 02:45:25;;;;;;;53.53;29.88;;;10.40;99.90;;;;;;5030703;28;20458;-88
2024/03/14 02:47:51;;;;;;;52.55;28.23;;;10.40;99.90;;;;;;5030947;28;20028;-88
2024/03/14 02:50:18;;;;;;;50.45;27.50;;;10.40;99.90;;;;;;5022250;28;20292;-88
2024/03/14 02:52:45;;;;;;;50.97;28.15;;;10.40;99.90;;;;;;5030493;28;20017;-88
2024/03/14 02:55:11;;;;;;;49.47;27.70;;;10.30;99.90;;;;;;5030660;28;20177;-88
2024/03/14 02:57:36;;;;;;;55.55;28.98;;;10.30;99.90;;;;;;5012724;28;20074;-88
2024/03/14 03:00:05;;;;;;;49.92;27.05;;;10.30;99.90;;;;;;5043782;28;20170;-87
2024/03/14 03:02:30;;;;;;;59.30;29.48;;;10.30;99.90;;;;;;5043853;28;20034;-88
2024/03/14 03:04:56;;;;;;;53.10;29.33;;;10.30;99.90;;;;;;5046787;28;20032;-88
2024/03/14 03:07:22;;;;;;;54.08;29.92;;;10.30;99.90;;;;;;5031934;28;20033;-88
2024/03/14 03:09:49;;;;;;;54.08;28.85;;;10.30;99.90;;;;;;5043787;28;20029;-88
2024/03/14 03:12:14;;;;;;;51.40;27.50;;;10.30;99.90;;;;;;5017320;28;20057;-87
2024/03/14 03:14:40;;;;;;;50.50;27.75;;;10.30;99.90;;;;;;5047711;28;20682;-88
2024/03/14 03:17:05;;;;;;;54.08;28.17;;;10.30;99.90;;;;;;5047647;28;20124;-88
2024/03/14 03:19:31;;;;;;;51.83;28.65;;;10.40;99.90;;;;;;5048130;28;20098;-88
2024/03/14 03:21:58;;;;;;;56.55;29.33;;;10.40;99.90;;;;;;5050358;28;20033;-88
2024/03/14 03:24:24;;;;;;;53.22;28.35;;;10.40;99.90;;;;;;5034521;28;20095;-87
2024/03/14 03:26:50;;;;;;;56.25;28.02;;;10.30;99.90;;;;;;5035582;28;20475;-88
2024/03/14 03:29:16;;;;;;;52.67;26.80;;;10.30;99.90;;;;;;5053799;28;20045;-88
2024/03/14 03:31:42;;;;;;;55.58;29.70;;;10.30;99.90;;;;;;5030591;28;20075;-88
2024/03/14 03:34:07;;;;;;;52.63;27.55;;;10.30;99.90;;;;;;5014173;28;20025;-87
2024/03/14 03:36:33;;;;;;;51.65;27.65;;;10.30;99.90;;;;;;5014356;28;20030;-87
2024/03/14 03:39:00;;;;;;;48.97;26.65;;;10.30;99.90;;;;;;5014242;28;20033;-88
2024/03/14 03:41:29;;;;;;;49.58;27.08;;;10.30;99.90;;;;;;5021742;28;20061;-88
2024/03/14 03:43:55;;;;;;;52.38;27.77;;;10.30;99.90;;;;;;5049990;28;20120;-87
2024/03/14 03:46:21;;;;;;;47.47;26.70;;;10.30;99.90;;;;;;5050169;28;20053;-88
2024/03/14 03:48:47;;;;;;;50.65;26.75;;;10.30;99.90;;;;;;5049672;28;20431;-88
2024/03/14 03:51:13;;;;;;;51.15;27.60;;;10.30;99.90;;;;;;5045391;28;20026;-88
2024/03/14 03:53:38;;;;;;;51.38;26.63;;;10.30;99.90;;;;;;5050220;28;20101;-88
2024/03/14 03:56:04;;;;;;;48.40;25.25;;;10.30;99.90;;;;;;5033811;28;20516;-88
2024/03/14 03:58:55;;;;;;;44.67;25.42;;;10.40;99.90;;;;;;5033350;28;20263;-87
2024/03/14 04:01:22;;;;;;;48.00;26.67;;;10.40;99.90;;;;;;5032539;28;20026;-88
2024/03/14 04:03:48;;;;;;;46.20;25.23;;;10.40;99.90;;;;;;5033728;28;20840;-88
2024/03/14 04:06:15;;;;;;;47.80;25.77;;;10.40;99.90;;;;;;5033300;28;20052;-88
2024/03/14 04:08:41;;;;;;;43.20;24.00;;;10.40;99.90;;;;;;5033651;28;20065;-87
2024/03/14 04:11:07;;;;;;;45.38;24.42;;;10.40;99.90;;;;;;5032989;28;20028;-87
2024/03/14 04:13:33;;;;;;;39.45;23.08;;;10.40;99.90;;;;;;5033299;28;20018;-88
2024/03/14 04:16:00;;;;;;;46.80;24.45;;;10.40;99.90;;;;;;5032829;28;20391;-88
2024/03/14 04:18:29;;;;;;;48.55;24.17;;;10.40;99.90;;;;;;5032450;28;20025;-88
2024/03/14 04:20:55;;;;;;;39.47;23.98;;;10.50;99.90;;;;;;5033682;28;20017;-88
2024/03/14 04:23:20;;;;;;;37.42;23.42;;;10.40;99.90;;;;;;5033612;28;20032;-88
2024/03/14 04:25:46;;;;;;;42.03;23.50;;;10.40;99.90;;;;;;5033144;28;20363;-87
2024/03/14 04:28:13;;;;;;;41.13;23.70;;;10.40;99.90;;;;;;5033044;28;20024;-87
2024/03/14 04:30:38;;;;;;;42.25;23.55;;;10.50;99.90;;;;;;5033895;28;20049;-88
2024/03/14 04:33:04;;;;;;;38.75;22.33;;;10.50;99.90;;;;;;5033481;28;20568;-87
2024/03/14 04:35:31;;;;;;;44.63;23.83;;;10.40;99.90;;;;;;5033169;28;20032;-88
2024/03/14 04:37:57;;;;;;;43.72;24.50;;;10.40;99.90;;;;;;5033410;28;20088;-88
2024/03/14 04:40:22;;;;;;;45.03;24.30;;;10.50;99.90;;;;;;5032340;28;20529;-87
2024/03/14 04:42:55;;;;;;;47.13;24.10;;;10.40;99.90;;;;;;5032291;28;20025;-88
2024/03/14 04:45:21;;;;;;;45.25;24.90;;;10.40;99.90;;;;;;5034062;28;20029;-87
2024/03/14 04:47:50;;;;;;;41.38;23.25;;;10.40;99.90;;;;;;5034698;28;20032;-88
2024/03/14 04:50:18;;;;;;;35.67;21.30;;;10.40;99.90;;;;;;5032935;28;20116;-87
2024/03/14 04:52:45;;;;;;;38.88;23.60;;;10.40;99.90;;;;;;5034309;28;20105;-88
2024/03/14 04:55:10;;;;;;;43.42;22.73;;;10.40;99.90;;;;;;5032399;28;20028;-88
2024/03/14 04:57:49;;;;;;;37.50;21.73;;;10.40;99.90;;;;;;5032665;28;20108;-87
2024/03/14 05:00:20;;;;;;;39.95;21.67;;;10.50;99.90;;;;;;5031407;28;20033;-88
2024/03/14 05:02:50;;;;;;;42.03;23.85;;;10.40;99.90;;;;;;5045602;28;20021;-87
2024/03/14 05:05:20;;;;;;;44.13;21.83;;;10.50;99.90;;;;;;5045867;28;20025;-88
2024/03/14 05:07:48;;;;;;;45.97;22.63;;;10.40;99.90;;;;;;5046329;28;20101;-88
2024/03/14 05:10:14;;;;;;;39.72;21.75;;;10.50;99.90;;;;;;5047764;28;20030;-89
2024/03/14 05:12:41;;;;;;;40.75;23.00;;;10.40;99.90;;;;;;5032450;28;20021;-88
2024/03/14 05:15:07;;;;;;;39.08;21.05;;;10.50;99.90;;;;;;5032716;28;20075;-88
2024/03/14 05:17:34;;;;;;;42.42;22.92;;;10.50;99.90;;;;;;5033116;28;20025;-88
2024/03/14 05:19:59;;;;;;;42.03;22.77;;;10.50;99.90;;;;;;5032401;28;20030;-88
2024/03/14 05:22:28;;;;;;;44.20;22.80;;;10.50;99.90;;;;;;5033391;28;20064;-89
2024/03/14 05:24:58;;;;;;;37.80;21.90;;;10.50;99.90;;;;;;5051763;28;20029;-88
2024/03/14 05:27:27;;;;;;;41.70;22.40;;;10.40;99.90;;;;;;5035564;28;20108;-88
2024/03/14 05:29:53;;;;;;;41.45;22.73;;;10.50;99.90;;;;;;5036234;28;20025;-88
2024/03/14 05:32:27;;;;;;;38.42;22.15;;;10.50;99.90;;;;;;5031935;28;20103;-87
2024/03/14 05:34:54;;;;;;;35.83;21.48;;;10.50;99.90;;;;;;5033325;28;20022;-87
2024/03/14 05:37:21;;;;;;;39.00;21.38;;;10.50;99.90;;;;;;5032994;28;20041;-87
2024/03/14 05:39:47;;;;;;;40.50;22.52;;;10.50;99.90;;;;;;5031658;28;20387;-89
2024/03/14 05:42:13;;;;;;;40.10;20.48;;;10.50;99.90;;;;;;5030000;28;20033;-89
2024/03/14 05:44:42;;;;;;;39.90;22.05;;;10.60;99.90;;;;;;5031369;28;20066;-89
2024/03/14 05:47:11;;;;;;;39.20;21.10;;;10.60;99.90;;;;;;5032331;28;20025;-89
2024/03/14 05:49:37;;;;;;;41.30;21.25;;;10.60;99.90;;;;;;5031723;28;20070;-89
2024/03/14 05:52:03;;;;;;;37.47;19.23;;;10.60;99.90;;;;;;5031762;28;20022;-89
2024/03/14 05:54:29;;;;;;;37.60;20.15;;;10.60;99.90;;;;;;5031304;28;20382;-88
2024/03/14 05:56:55;;;;;;;36.38;19.67;;;10.60;99.90;;;;;;5046722;28;20037;-88
2024/03/14 05:59:21;;;;;;;35.55;19.85;;;10.60;99.90;;;;;;5011671;28;20030;-86
2024/03/14 06:01:47;;;;;;;38.15;20.38;;;10.70;99.90;;;;;;5042383;28;20399;-88
2024/03/14 06:04:13;;;;;;;34.13;19.70;;;10.70;99.90;;;;;;5042260;28;20029;-87
2024/03/14 06:06:39;;;;;;;35.35;20.58;;;10.70;99.90;;;;;;5041292;28;20037;-84
2024/03/14 06:09:04;;;;;;;38.63;21.50;;;10.70;99.90;;;;;;5041432;28;20026;-84
2024/03/14 06:11:33;;;;;;;35.97;20.95;;;10.70;99.90;;;;;;5040977;28;20113;-84
2024/03/14 06:13:59;;;;;;;34.25;20.45;;;10.80;99.90;;;;;;5008994;28;20026;-84
2024/03/14 06:16:25;;;;;;;36.90;20.60;;;10.80;99.90;;;;;;5046059;28;20049;-84
2024/03/14 06:18:51;;;;;;;38.97;20.90;;;10.80;99.90;;;;;;5030981;28;20121;-84
2024/03/14 06:21:17;;;;;;;35.17;20.85;;;10.80;99.90;;;;;;5028011;28;20030;-84
2024/03/14 06:23:42;;;;;;;35.67;19.50;;;10.80;99.90;;;;;;5029500;28;20075;-84
2024/03/14 06:26:08;;;;;;;33.45;19.55;;;10.80;99.90;;;;;;5024774;28;20041;-84
2024/03/14 06:28:35;;;;;;;34.38;19.42;;;10.90;99.90;;;;;;5018581;28;20491;-84
2024/03/14 06:31:01;;;;;;;37.30;19.45;;;10.90;99.90;;;;;;5044019;28;20025;-84
2024/03/14 06:33:27;;;;;;;35.25;19.80;;;10.90;99.90;;;;;;5009643;28;20439;-84
2024/03/14 06:35:55;;;;;;;34.78;19.17;;;10.90;99.90;;;;;;5028029;28;20117;-84
2024/03/14 06:38:21;;;;;;;35.45;20.13;;;10.90;99.90;;;;;;5047261;28;20116;-82
2024/03/14 06:40:48;;;;;;;34.42;20.45;;;10.90;99.90;;;;;;5037286;28;20068;-83
2024/03/14 06:43:14;;;;;;;31.67;19.08;;;10.90;99.90;;;;;;5050557;28;20049;-86
2024/03/14 06:45:40;;;;;;;33.45;19.23;;;10.90;99.90;;;;;;5036040;28;20033;-87
2024/03/14 06:48:06;;;;;;;33.08;19.42;;;10.90;99.90;;;;;;5034356;28;20124;-87
2024/03/14 06:50:31;;;;;;;34.88;19.80;;;10.90;99.90;;;;;;5031287;28;20025;-87
2024/03/14 06:52:58;;;;;;;34.30;19.38;;;11.00;99.90;;;;;;5048065;28;20108;-87
2024/03/14 06:55:24;;;;;;;41.90;21.55;;;11.00;99.90;;;;;;5030169;28;20041;-84
2024/03/14 06:57:53;;;;;;;34.80;19.10;;;11.00;99.90;;;;;;5031199;28;20067;-84
2024/03/14 07:00:22;;;;;;;34.95;19.77;;;11.10;99.90;;;;;;5024461;28;20033;-87
2024/03/14 07:02:49;;;;;;;35.13;19.67;;;11.10;99.90;;;;;;5030800;28;20106;-86
2024/03/14 07:05:15;;;;;;;35.25;19.10;;;11.20;99.90;;;;;;5032109;28;20033;-85
2024/03/14 07:07:47;;;;;;;32.55;18.77;;;11.30;99.90;;;;;;5031339;28;20431;-91
2024/03/14 07:10:14;;;;;;;33.33;19.33;;;11.50;99.90;;;;;;5031474;28;20129;-88
2024/03/14 07:12:48;;;;;;;35.65;19.00;;;11.70;99.90;;;;;;5032726;28;20032;-87
2024/03/14 07:15:15;;;;;;;33.35;19.88;;;11.90;99.90;;;;;;5015975;28;20049;-88
2024/03/14 07:17:41;;;;;;;27.80;17.67;;;12.00;99.90;;;;;;5023532;28;20160;-88
2024/03/14 07:20:10;;;;;;;32.15;18.20;;;12.20;99.90;;;;;;5027719;28;20079;-88
2024/03/14 07:22:43;;;;;;;32.25;18.10;;;12.30;99.90;;;;;;5027048;28;20036;-88
2024/03/14 07:25:09;;;;;;;30.08;18.17;;;12.50;99.90;;;;;;5039164;28;20017;-88
2024/03/14 07:27:35;;;;;;;28.05;17.13;;;12.60;99.90;;;;;;5035912;28;20105;-87
2024/03/14 07:30:04;;;;;;;30.77;18.20;;;12.60;99.90;;;;;;5032749;28;20033;-88
2024/03/14 07:32:29;;;;;;;31.17;18.75;;;12.60;99.90;;;;;;5051242;28;20033;-88
2024/03/14 07:34:56;;;;;;;28.33;17.67;;;12.70;99.90;;;;;;5051493;28;20017;-88
2024/03/14 07:37:23;;;;;;;26.90;18.33;;;12.70;99.90;;;;;;5049994;28;20089;-89
2024/03/14 07:39:51;;;;;;;28.15;17.63;;;12.70;99.90;;;;;;5035511;28;20043;-86
2024/03/14 07:42:17;;;;;;;28.10;17.85;;;12.60;99.90;;;;;;5046837;28;20378;-86
2024/03/14 07:44:45;;;;;;;25.33;16.08;;;12.60;99.90;;;;;;5034501;28;20022;-86
2024/03/14 07:47:19;;;;;;;28.17;17.70;;;12.50;99.90;;;;;;5033431;28;20047;-85
2024/03/14 07:49:48;;;;;;;27.10;16.83;;;12.60;99.90;;;;;;5033794;28;20050;-86
2024/03/14 07:52:16;;;;;;;23.65;15.27;;;12.50;99.90;;;;;;5065350;28;20030;-86
2024/03/14 07:54:47;;;;;;;26.05;16.63;;;12.50;99.90;;;;;;5033998;28;20026;-85
2024/03/14 07:57:14;;;;;;;28.23;16.67;;;12.40;99.90;;;;;;5037038;28;20014;-78
2024/03/14 07:59:41;;;;;;;26.40;15.93;;;12.30;99.90;;;;;;5058941;28;20021;-87
2024/03/14 08:02:07;;;;;;;27.67;16.65;;;12.30;99.90;;;;;;5057273;28;20006;-87
2024/03/14 08:04:34;;;;;;;27.45;16.80;;;12.30;99.90;;;;;;5054896;28;20028;-88
2024/03/14 08:07:10;;;;;;;27.73;16.75;;;12.30;99.90;;;;;;5049263;28;20010;-88
2024/03/14 08:09:42;;;;;;;22.02;14.82;;;12.30;99.90;;;;;;5053983;28;20029;-85
2024/03/14 08:12:07;;;;;;;28.67;16.05;;;12.30;99.90;;;;;;5052062;28;20005;-90
2024/03/14 08:14:36;;;;;;;25.75;15.38;;;12.30;99.90;;;;;;5068224;28;20049;-85
2024/03/14 08:17:07;;;;;;;21.67;15.43;;;12.30;99.90;;;;;;5068722;28;20053;-86
2024/03/14 08:19:33;;;;;;;25.33;15.07;;;12.30;99.90;;;;;;5050267;28;20117;-87
2024/03/14 08:21:58;;;;;;;21.55;13.50;;;12.30;99.90;;;;;;5048841;28;20033;-86
2024/03/14 08:24:39;;;;;;;25.08;15.00;;;12.40;99.90;;;;;;5020664;28;20028;-88
2024/03/14 08:27:05;;;;;;;28.60;16.45;;;12.40;99.90;;;;;;5026365;28;20014;-85
2024/03/14 08:29:31;;;;;;;22.50;14.75;;;12.40;99.90;;;;;;5050182;28;20165;-85
2024/03/14 08:32:03;;;;;;;28.98;15.68;;;12.50;99.90;;;;;;5052011;28;20538;-89
2024/03/14 08:34:29;;;;;;;22.27;14.10;;;12.50;99.90;;;;;;5042424;28;20028;-85
2024/03/14 08:36:56;;;;;;;23.45;15.60;;;12.50;99.90;;;;;;5025176;28;20057;-88
2024/03/14 08:39:22;;;;;;;23.05;14.75;;;12.60;99.90;;;;;;5059323;28;20628;-85
2024/03/14 08:41:48;;;;;;;23.17;14.52;;;12.60;99.90;;;;;;5043084;28;20021;-86
2024/03/14 08:44:13;;;;;;;23.10;15.32;;;12.60;99.90;;;;;;5034120;28;20025;-91
2024/03/14 08:46:40;;;;;;;20.45;14.48;;;12.70;99.90;;;;;;5020272;28;20116;-90
2024/03/14 08:49:06;;;;;;;22.48;14.10;;;12.80;99.90;;;;;;5040807;28;20030;-87
2024/03/14 08:51:37;;;;;;;25.38;15.32;;;12.90;99.90;;;;;;5021972;28;20030;-87
2024/03/14 08:56:58;;;;;;;21.20;13.85;;;13.10;99.90;;;;;;5017363;28;20117;-89
2024/03/14 08:59:35;;;;;;;20.25;13.57;;;13.30;99.90;;;;;;5015985;28;20061;-90
2024/03/14 09:13:00;;;;;;;16.58;11.90;;;14.10;99.90;;;;;;5114886;22;20518;-87
2024/03/14 09:15:26;;;;;;;15.82;11.43;;;14.30;99.90;;;;;;5017776;28;20124;-89
2024/03/14 09:17:52;;;;;;;19.20;12.38;;;14.50;99.90;;;;;;5018128;28;20569;-81
2024/03/14 09:20:19;;;;;;;16.73;10.88;;;14.50;99.90;;;;;;5016117;28;20060;-83
2024/03/14 09:22:53;;;;;;;17.50;11.13;;;14.70;99.90;;;;;;5015331;28;20071;-83
2024/03/14 09:25:21;;;;;;;16.38;10.85;;;15.00;99.90;;;;;;5016051;28;20112;-81
2024/03/14 09:27:47;;;;;;;17.65;11.90;;;15.20;99.90;;;;;;5015363;28;20067;-82
2024/03/14 09:30:17;;;;;;;21.02;14.20;;;15.30;99.90;;;;;;5015553;28;20025;-82
2024/03/14 09:32:42;;;;;;;14.65;10.73;;;15.40;99.90;;;;;;5015374;28;20381;-83
2024/03/14 09:35:13;;;;;;;15.68;10.38;;;15.50;99.90;;;;;;5015855;28;20088;-83
2024/03/14 09:37:39;;;;;;;12.98;9.60;;;15.60;99.90;;;;;;5016481;28;20025;-83
2024/03/14 09:40:13;;;;;;;13.73;9.68;;;15.90;99.90;;;;;;5016009;28;20046;-83
2024/03/14 09:42:39;;;;;;;13.00;8.98;;;16.20;99.90;;;;;;5016026;28;20041;-82
2024/03/14 09:45:12;;;;;;;14.07;9.18;;;16.70;99.90;;;;;;5016465;28;20029;-88
2024/03/14 09:47:52;;;;;;;14.38;8.75;;;17.50;99.90;;;;;;5032853;28;20040;-85
2024/03/14 10:33:54;;;;;;;2.63;1.63;;;17.70;92.10;;;;;;5014746;28;20443;-85
2024/03/14 10:36:19;;;;;;;3.33;1.50;;;17.50;92.00;;;;;;5014600;28;20120;-86
2024/03/14 10:38:45;;;;;;;2.38;1.33;;;17.60;92.70;;;;;;4997325;28;20029;-85
2024/03/14 10:41:17;;;;;;;3.35;1.30;;;17.50;92.10;;;;;;4995674;28;20026;-80
2024/03/14 10:43:58;;;;;;;2.80;1.33;;;17.60;92.30;;;;;;4995083;28;20376;-81
2024/03/14 10:46:25;;;;;;;5.57;1.73;;;17.50;92.90;;;;;;4994973;28;20029;-81
2024/03/14 10:48:51;;;;;;;4.57;2.50;;;17.60;92.70;;;;;;4995132;28;20124;-81
2024/03/14 10:51:18;;;;;;;3.70;2.88;;;17.60;93.40;;;;;;4994924;28;20180;-81
2024/03/14 10:53:45;;;;;;;3.67;2.45;;;17.80;93.50;;;;;;4994913;28;20045;-81
2024/03/14 10:56:22;;;;;;;4.05;2.42;;;18.30;93.10;;;;;;5013073;28;20018;-81
2024/03/14 10:58:49;;;;;;;3.50;2.55;;;19.00;92.70;;;;;;4994901;28;20109;-81
2024/03/14 11:01:15;;;;;;;3.58;2.25;;;19.30;91.10;;;;;;4994623;28;20034;-82
2024/03/14 11:03:41;;;;;;;3.97;2.15;;;19.20;90.80;;;;;;4995139;28;20041;-82
2024/03/14 11:06:14;;;;;;;2.90;1.48;;;19.40;90.10;;;;;;5012829;28;20022;-82
2024/03/14 11:08:45;;;;;;;2.15;1.80;;;20.30;88.70;;;;;;4994979;28;20026;-83
2024/03/14 11:11:14;;;;;;;3.90;2.78;;;20.90;86.40;;;;;;4994740;28;20028;-83
2024/03/14 11:13:44;;;;;;;4.28;2.35;;;20.90;84.90;;;;;;4995313;28;20026;-82
2024/03/14 11:16:13;;;;;;;1.98;1.58;;;21.80;83.40;;;;;;5011874;28;20022;-83
2024/03/14 11:18:45;;;;;;;2.13;1.50;;;22.80;80.90;;;;;;4995465;28;20030;-83
2024/03/14 11:21:12;;;;;;;4.80;2.05;;;23.00;78.30;;;;;;5013611;28;20030;-83
2024/03/14 11:23:40;;;;;;;3.20;2.17;;;23.50;77.70;;;;;;4997977;28;20025;-83
2024/03/14 11:26:13;;;;;;;5.65;3.03;;;23.70;77.80;;;;;;4995454;28;20022;-83
2024/03/14 11:28:41;;;;;;;3.50;2.50;;;24.00;76.50;;;;;;5012449;28;20427;-83
2024/03/14 11:31:06;;;;;;;3.28;2.50;;;23.30;75.70;;;;;;5014033;28;20029;-83
2024/03/14 11:33:32;;;;;;;3.60;2.05;;;23.00;76.10;;;;;;4998394;28;20368;-83
2024/03/14 11:35:58;;;;;;;2.83;2.30;;;22.70;76.40;;;;;;5016051;28;20530;-83
2024/03/14 11:38:30;;;;;;;4.32;2.70;;;22.10;77.00;;;;;;4998837;28;20116;-82
2024/03/14 11:41:02;;;;;;;5.15;2.45;;;21.90;78.90;;;;;;4998115;28;20030;-83
2024/03/14 11:43:33;;;;;;;4.53;2.42;;;21.60;77.90;;;;;;5016248;28;20048;-83
2024/03/14 11:46:00;;;;;;;6.85;3.20;;;21.40;79.90;;;;;;4998624;28;20033;-83
2024/03/14 11:48:30;;;;;;;4.50;3.05;;;21.30;80.00;;;;;;4998738;28;20739;-83
2024/03/14 11:51:01;;;;;;;4.25;2.47;;;21.00;80.10;;;;;;4998076;28;20379;-83
2024/03/14 11:53:29;;;;;;;3.28;2.70;;;20.80;81.00;;;;;;5016130;28;20126;-82
2024/03/14 11:55:56;;;;;;;3.80;2.53;;;20.50;80.80;;;;;;4998500;28;20076;-83
2024/03/14 11:58:23;;;;;;;3.35;2.65;;;20.80;81.60;;;;;;5004510;28;20026;-83
2024/03/14 12:00:52;;;;;;;4.47;3.65;;;21.20;80.60;;;;;;5017928;28;20482;-83
2024/03/14 12:03:18;;;;;;;4.43;3.60;;;21.70;78.80;;;;;;5014828;28;20037;-84
2024/03/14 12:05:51;;;;;;;5.60;3.80;;;21.10;80.80;;;;;;5031503;28;20078;-84
2024/03/14 12:08:18;;;;;;;6.55;4.32;;;21.30;80.80;;;;;;5018094;28;20033;-84
2024/03/14 12:10:45;;;;;;;5.38;4.28;;;21.10;80.70;;;;;;5017502;28;20036;-83
2024/03/14 12:13:19;;;;;;;5.40;3.88;;;20.40;81.40;;;;;;5014734;28;20022;-84
2024/03/14 12:15:45;;;;;;;6.45;4.47;;;20.50;83.00;;;;;;4995176;28;20026;-83
2024/03/14 12:18:11;;;;;;;5.57;3.75;;;20.60;84.40;;;;;;5017761;28;20051;-84
2024/03/14 12:20:47;;;;;;;4.32;3.70;;;20.50;82.80;;;;;;5017337;28;20041;-84
2024/03/14 12:23:12;;;;;;;6.90;4.63;;;20.40;82.30;;;;;;5016458;28;20659;-84
2024/03/14 12:25:38;;;;;;;5.00;4.53;;;20.10;83.80;;;;;;5016720;28;20122;-84
2024/03/14 12:28:10;;;;;;;7.93;5.57;;;19.60;83.90;;;;;;5016647;28;20033;-84
2024/03/14 12:30:39;;;;;;;6.80;4.43;;;19.30;84.30;;;;;;5016230;28;20048;-82
2024/03/14 12:33:07;;;;;;;6.93;5.30;;;19.80;85.90;;;;;;5016542;28;20025;-83
2024/03/14 12:35:33;;;;;;;5.47;4.13;;;19.80;85.60;;;;;;5016789;28;20021;-83
2024/03/14 12:38:01;;;;;;;8.30;4.43;;;20.10;86.20;;;;;;5017094;28;20033;-83
2024/03/14 12:40:29;;;;;;;7.95;3.95;;;20.10;85.90;;;;;;5015948;28;20112;-82
2024/03/14 12:42:55;;;;;;;5.40;4.45;;;20.40;83.80;;;;;;5016683;28;20375;-83
2024/03/14 12:45:25;;;;;;;6.30;5.00;;;20.50;84.70;;;;;;5016712;28;20083;-84
2024/03/14 12:47:54;;;;;;;6.07;4.43;;;20.60;81.90;;;;;;5017005;28;20044;-83
2024/03/14 12:50:24;;;;;;;8.03;5.53;;;20.50;83.50;;;;;;5016804;28;20026;-83
2024/03/14 12:53:07;;;;;;;7.45;5.68;;;20.20;82.90;;;;;;5017181;28;20271;-84
2024/03/14 12:55:33;;;;;;;6.65;5.30;;;19.80;83.20;;;;;;5000087;28;20083;-83
2024/03/14 12:58:03;;;;;;;9.32;4.95;;;19.80;84.50;;;;;;5016941;28;20431;-84
2024/03/14 13:00:31;;;;;;;7.20;5.60;;;19.80;86.00;;;;;;5016564;28;20034;-83
2024/03/14 13:02:57;;;;;;;9.15;6.63;;;19.70;84.40;;;;;;5016902;28;20482;-84
2024/03/14 13:05:26;;;;;;;9.02;6.38;;;19.40;84.90;;;;;;5016727;28;20030;-83
2024/03/14 13:08:12;;;;;;;8.23;6.70;;;18.90;86.60;;;;;;5016753;28;20026;-84
2024/03/14 13:10:40;;;;;;;7.90;6.85;;;19.10;87.30;;;;;;5016458;28;20037;-83
2024/03/14 13:13:17;;;;;;;9.05;6.80;;;19.60;86.40;;;;;;5016898;28;20112;-84
2024/03/14 13:15:52;;;;;;;7.88;6.22;;;20.00;86.80;;;;;;5033614;28;20060;-83
2024/03/14 13:18:21;;;;;;;8.50;7.00;;;20.00;86.30;;;;;;5014948;28;20423;-84
2024/03/14 13:20:57;;;;;;;8.40;6.63;;;19.90;87.00;;;;;;5014750;28;20021;-83
2024/03/14 13:23:23;;;;;;;8.93;6.63;;;19.80;85.60;;;;;;5016937;28;20309;-84
2024/03/14 13:25:50;;;;;;;7.97;6.97;;;19.40;86.50;;;;;;5016237;28;20052;-84
2024/03/14 13:28:16;;;;;;;8.63;6.63;;;19.10;87.00;;;;;;5016582;28;20644;-84
2024/03/14 13:30:42;;;;;;;7.72;6.57;;;19.40;88.10;;;;;;5016095;28;20045;-82